Time;durP1;ratioP1;P1;durP2;ratioP2;P2;SDS_P1;SDS_P2;PMS_P1;PMS_P2;Temp;Humidity;BMP_temperature;BMP_pressure;BME280_temperature;BME280_humidity;BME280_pressure;Samples;Min_cycle;Max_cycle;Signal;HPM_P1;HPM_P2
2021/11/02 00:02:37;0.00;0.00;0.62;0.00;0.00;0.62;1.40;1.00;;;26.40;29.10;;;;;;2257724;61;20347;-64
2021/11/02 00:05:22;0.00;0.00;0.62;0.00;0.00;0.62;1.53;0.90;;;26.40;29.10;;;;;;2257562;61;20595;-63
2021/11/02 00:08:06;0.00;0.00;0.62;0.00;0.00;0.62;1.30;0.73;;;26.40;29.10;;;;;;2255410;61;20614;-64
2021/11/02 00:10:51;0.00;0.00;0.62;0.00;0.00;0.62;2.03;0.90;;;26.40;29.10;;;;;;2253029;61;20367;-65
2021/11/02 00:13:41;0.00;0.00;0.62;0.00;0.00;0.62;2.67;1.00;;;26.40;29.10;;;;;;2253052;61;20427;-65
2021/11/02 00:16:27;0.00;0.00;0.62;0.00;0.00;0.62;1.60;0.80;;;26.40;29.10;;;;;;2253441;61;20407;-64
2021/11/02 00:19:14;0.00;0.00;0.62;0.00;0.00;0.62;1.40;0.80;;;26.40;29.10;;;;;;2253160;61;20716;-63
2021/11/02 00:22:07;0.00;0.00;0.62;0.00;0.00;0.62;1.60;1.13;;;26.40;29.10;;;;;;2253252;61;20740;-65
2021/11/02 00:27:40;0.00;0.00;0.62;0.00;0.00;0.62;1.57;1.00;;;26.40;29.10;;;;;;2253565;61;20759;-65
2021/11/02 00:30:25;0.00;0.00;0.62;0.00;0.00;0.62;2.43;0.80;;;26.40;29.10;;;;;;2253160;61;20403;-64
2021/11/02 00:33:09;0.00;0.00;0.62;0.00;0.00;0.62;1.90;0.93;;;26.40;29.10;;;;;;2255756;61;20379;-64
2021/11/02 00:35:56;0.00;0.00;0.62;0.00;0.00;0.62;1.80;0.90;;;26.40;29.10;;;;;;2255780;61;20368;-65
2021/11/02 00:38:41;0.00;0.00;0.62;0.00;0.00;0.62;1.33;0.80;;;26.40;29.10;;;;;;2253415;61;20388;-64
2021/11/02 00:41:26;0.00;0.00;0.62;0.00;0.00;0.62;1.50;0.83;;;26.40;29.10;;;;;;2255706;61;20614;-65
2021/11/02 00:44:10;0.00;0.00;0.62;0.00;0.00;0.62;1.63;1.00;;;26.40;29.20;;;;;;2253127;61;20764;-65
2021/11/02 00:46:56;0.00;0.00;0.62;0.00;0.00;0.62;4.53;0.87;;;26.40;29.10;;;;;;2253411;61;20415;-65
2021/11/02 00:49:41;0.00;0.00;0.62;0.00;0.00;0.62;1.73;0.80;;;26.40;29.20;;;;;;2253201;61;20633;-66
2021/11/02 00:52:28;0.00;0.00;0.62;0.00;0.00;0.62;1.47;0.90;;;26.40;29.20;;;;;;2253043;61;20364;-67
2021/11/02 00:55:12;0.00;0.00;0.62;0.00;0.00;0.62;1.90;1.13;;;26.40;29.20;;;;;;2253272;61;20375;-64
2021/11/02 00:57:58;0.00;0.00;0.62;0.00;0.00;0.62;2.33;1.00;;;26.40;29.20;;;;;;2253311;61;20383;-65
2021/11/02 01:00:44;0.00;0.00;0.62;0.00;0.00;0.62;1.53;0.90;;;26.40;29.20;;;;;;2252926;61;20749;-64
2021/11/02 01:03:29;0.00;0.00;0.62;0.00;0.00;0.62;1.77;1.00;;;26.30;29.00;;;;;;2253476;61;20403;-64
2021/11/02 01:06:13;0.00;0.00;0.62;0.00;0.00;0.62;2.27;1.00;;;26.30;29.00;;;;;;2253018;61;20604;-64
2021/11/02 01:09:00;0.00;0.00;0.62;0.00;0.00;0.62;1.80;1.00;;;26.30;28.90;;;;;;2253077;61;20387;-64
2021/11/02 01:11:45;0.00;0.00;0.62;0.00;0.00;0.62;3.00;1.47;;;26.30;28.80;;;;;;2253463;61;20739;-64
2021/11/02 01:14:30;0.00;0.00;0.62;0.00;0.00;0.62;1.60;1.00;;;26.30;28.70;;;;;;2253001;61;20427;-64
2021/11/02 01:17:14;0.00;0.00;0.62;0.00;0.00;0.62;2.10;1.30;;;26.30;28.60;;;;;;2253481;61;20659;-64
2021/11/02 01:19:59;0.00;0.00;0.62;0.00;0.00;0.62;2.37;1.60;;;26.30;28.60;;;;;;2252956;61;20403;-64
2021/11/02 01:22:46;0.00;0.00;0.62;0.00;0.00;0.62;2.23;1.30;;;26.30;28.50;;;;;;2252847;61;20480;-63
2021/11/02 01:25:33;0.00;0.00;0.62;0.00;0.00;0.62;2.80;1.40;;;26.20;28.40;;;;;;2253255;61;20395;-63
2021/11/02 01:28:17;0.00;0.00;0.62;0.00;0.00;0.62;2.47;1.17;;;26.20;28.40;;;;;;2253118;61;20458;-63
2021/11/02 01:31:04;0.00;0.00;0.62;0.00;0.00;0.62;2.10;1.40;;;26.20;28.40;;;;;;2253200;61;20383;-64
2021/11/02 01:33:50;0.00;0.00;0.62;0.00;0.00;0.62;1.70;1.10;;;26.20;28.40;;;;;;2253410;61;20387;-64
2021/11/02 01:36:35;0.00;0.00;0.62;0.00;0.00;0.62;2.23;1.43;;;26.20;28.30;;;;;;2252417;61;20363;-63
2021/11/02 01:39:19;0.00;0.00;0.62;0.00;0.00;0.62;1.80;1.30;;;26.20;28.30;;;;;;2253152;61;20472;-64
2021/11/02 01:42:07;0.00;0.00;0.62;0.00;0.00;0.62;2.20;1.60;;;26.10;28.30;;;;;;2253118;61;20367;-63
2021/11/02 01:44:53;0.00;0.00;0.62;0.00;0.00;0.62;1.87;1.40;;;26.10;28.20;;;;;;2253218;61;20363;-64
2021/11/02 01:47:43;0.00;0.00;0.62;0.00;0.00;0.62;2.50;1.53;;;26.10;28.20;;;;;;2253241;61;20419;-64
2021/11/02 01:50:29;0.00;0.00;0.62;0.00;0.00;0.62;2.40;1.50;;;26.00;28.20;;;;;;2252726;61;20378;-64
2021/11/02 01:53:14;0.00;0.00;0.62;0.00;0.00;0.62;2.40;1.30;;;26.00;28.10;;;;;;2253096;61;20627;-64
2021/11/02 01:56:01;0.00;0.00;0.62;0.00;0.00;0.62;1.93;1.30;;;26.00;28.10;;;;;;2252795;61;20628;-64
2021/11/02 01:58:54;0.00;0.00;0.62;0.00;0.00;0.62;1.80;1.20;;;26.00;28.10;;;;;;2252994;61;20395;-62
2021/11/02 02:01:51;0.00;0.00;0.62;0.00;0.00;0.62;2.67;1.47;;;26.00;28.60;;;;;;2253722;61;20360;-63
2021/11/02 02:04:57;0.00;0.00;0.62;0.00;0.00;0.62;2.30;1.50;;;26.00;28.10;;;;;;2253433;61;20360;-64
2021/11/02 02:08:03;0.00;0.00;0.62;0.00;0.00;0.62;2.60;1.60;;;25.90;28.10;;;;;;2253728;61;20391;-63
2021/11/02 02:11:02;0.00;0.00;0.62;0.00;0.00;0.62;2.00;1.37;;;25.90;28.10;;;;;;2253612;61;20363;-63
2021/11/02 02:13:59;0.00;0.00;0.62;0.00;0.00;0.62;1.87;1.30;;;25.90;28.10;;;;;;2253167;61;20380;-64
2021/11/02 02:16:48;0.00;0.00;0.62;0.00;0.00;0.62;2.20;1.57;;;25.80;28.00;;;;;;2253687;61;20371;-63
2021/11/02 02:19:47;0.00;0.00;0.62;0.00;0.00;0.62;2.50;1.27;;;25.80;28.00;;;;;;2253445;61;20380;-64
2021/11/02 02:23:07;0.00;0.00;0.62;0.00;0.00;0.62;1.80;1.50;;;25.80;28.00;;;;;;2254048;61;20408;-63
2021/11/02 02:25:58;0.00;0.00;0.62;0.00;0.00;0.62;2.20;1.40;;;25.80;28.00;;;;;;2256134;61;20399;-63
2021/11/02 02:28:52;0.00;0.00;0.62;0.00;0.00;0.62;2.70;1.47;;;25.80;28.00;;;;;;2253288;61;20403;-64
2021/11/02 02:31:42;0.00;0.00;0.62;0.00;0.00;0.62;1.77;1.23;;;25.70;28.00;;;;;;2256167;61;20403;-64
2021/11/02 02:34:27;0.00;0.00;0.62;0.00;0.00;0.62;6.60;1.57;;;25.70;28.00;;;;;;2253347;61;20391;-64
2021/11/02 02:37:12;0.00;0.00;0.62;0.00;0.00;0.62;2.10;1.20;;;25.70;28.00;;;;;;2253901;61;20784;-64
2021/11/02 02:39:58;0.00;0.00;0.62;0.00;0.00;0.62;2.60;1.30;;;25.70;28.00;;;;;;2253383;61;20419;-63
2021/11/02 02:42:45;0.00;0.00;0.62;0.00;0.00;0.62;1.80;1.10;;;25.60;27.90;;;;;;2255731;61;20363;-64
2021/11/02 02:45:35;0.00;0.00;0.62;0.00;0.00;0.62;1.80;1.20;;;25.60;27.90;;;;;;2253392;61;20387;-64
2021/11/02 02:48:22;0.00;0.00;0.62;0.00;0.00;0.62;1.80;1.03;;;25.60;27.90;;;;;;2253491;61;20379;-64
2021/11/02 02:51:09;0.00;0.00;0.62;0.00;0.00;0.62;2.43;1.47;;;25.50;27.90;;;;;;2253272;61;20620;-64
2021/11/02 02:53:56;0.00;0.00;0.62;0.00;0.00;0.62;2.30;1.10;;;25.50;27.90;;;;;;2253257;61;20392;-64
2021/11/02 02:56:45;0.00;0.00;0.62;0.00;0.00;0.62;3.57;1.27;;;25.50;27.90;;;;;;2255909;61;20356;-64
2021/11/02 02:59:32;0.00;0.00;0.62;0.00;0.00;0.62;2.47;1.50;;;25.40;27.80;;;;;;2253366;61;20364;-62
2021/11/02 03:02:21;0.00;0.00;0.62;0.00;0.00;0.62;3.03;1.43;;;25.40;27.80;;;;;;2253433;61;20360;-65
2021/11/02 03:05:08;0.00;0.00;0.62;0.00;0.00;0.62;2.17;1.50;;;25.40;27.80;;;;;;2252946;61;20723;-64
2021/11/02 03:07:55;0.00;0.00;0.62;0.00;0.00;0.62;2.17;1.30;;;25.40;27.80;;;;;;2253968;61;20728;-64
2021/11/02 03:10:43;0.00;0.00;0.62;0.00;0.00;0.62;1.90;1.40;;;25.30;27.80;;;;;;2256288;61;20392;-63
2021/11/02 03:13:32;0.00;0.00;0.62;0.00;0.00;0.62;1.63;1.20;;;25.30;27.80;;;;;;2256000;61;20665;-65
2021/11/02 03:16:24;0.00;0.00;0.62;0.00;0.00;0.62;2.00;1.07;;;25.30;27.80;;;;;;2253140;61;20716;-64
2021/11/02 03:20:14;0.00;0.00;0.62;0.00;0.00;0.62;2.10;1.50;;;25.20;27.70;;;;;;2253583;61;20368;-64
2021/11/02 03:45:01;0.00;0.00;0.62;0.00;0.00;0.62;1.87;1.20;;;25.00;27.70;;;;;;2253426;61;20716;-64
2021/11/02 03:51:14;0.00;0.00;0.62;0.00;0.00;0.62;2.10;1.20;;;25.00;27.60;;;;;;2253119;61;20444;-65
2021/11/02 03:57:22;0.00;0.00;0.62;0.00;0.00;0.62;1.90;1.00;;;24.90;27.60;;;;;;2252391;61;20379;-63
2021/11/02 05:14:02;0.00;0.00;0.62;0.00;0.00;0.62;2.23;1.40;;;24.30;27.50;;;;;;2253591;61;20387;-62
2021/11/02 06:00:14;0.00;0.00;0.62;0.00;0.00;0.62;2.50;1.60;;;24.00;27.40;;;;;;2253639;61;20590;-65
2021/11/02 06:03:22;0.00;0.00;0.62;0.00;0.00;0.62;2.90;1.80;;;24.00;27.40;;;;;;2253818;61;20376;-65
2021/11/02 06:06:29;0.00;0.00;0.62;0.00;0.00;0.62;2.53;1.80;;;23.90;27.40;;;;;;2253967;61;20408;-63
2021/11/02 06:09:26;0.00;0.00;0.62;0.00;0.00;0.62;3.70;1.97;;;23.90;27.40;;;;;;2253867;61;20356;-65
2021/11/02 06:23:24;0.00;0.00;0.62;0.00;0.00;0.62;4.50;2.50;;;23.90;27.40;;;;;;2253328;61;20431;-65
2021/11/02 06:28:11;0.00;0.00;0.62;0.00;0.00;0.62;3.97;2.17;;;23.80;27.40;;;;;;2253994;61;20791;-65
2021/11/02 06:33:55;0.00;0.00;0.62;0.00;0.00;0.62;3.10;1.70;;;23.70;27.30;;;;;;2253689;61;20499;-65
2021/11/02 07:18:47;0.00;0.00;0.62;0.00;0.00;0.62;2.60;1.83;;;23.60;27.50;;;;;;2252632;61;20419;-66
2021/11/02 07:21:56;0.00;0.00;0.62;0.00;0.00;0.62;3.00;1.73;;;23.60;27.50;;;;;;2253582;61;20359;-65
2021/11/02 07:24:51;0.00;0.00;0.62;0.00;0.00;0.62;2.50;1.53;;;23.60;27.60;;;;;;2253614;61;20364;-64
2021/11/02 08:46:41;0.00;0.00;0.62;0.00;0.00;0.62;3.60;1.87;;;23.60;27.80;;;;;;2256699;61;20431;-65
2021/11/02 08:49:28;0.00;0.00;0.62;0.00;0.00;0.62;4.40;1.67;;;23.60;27.80;;;;;;2256602;61;20735;-64
2021/11/02 08:52:14;0.00;0.00;0.62;0.00;0.00;0.62;1.70;1.20;;;23.70;28.10;;;;;;2255648;61;20612;-64
2021/11/02 08:54:59;0.00;0.00;0.62;0.00;0.00;0.62;2.80;1.40;;;23.70;27.90;;;;;;2256327;61;20391;-63
2021/11/02 08:57:47;0.00;0.00;0.62;0.00;0.00;0.62;2.20;1.40;;;23.70;27.90;;;;;;2255964;61;20359;-65
2021/11/02 09:00:34;0.00;0.00;0.62;0.00;0.00;0.62;2.23;1.27;;;23.70;27.90;;;;;;2256021;61;20386;-65
2021/11/02 09:03:20;0.00;0.00;0.62;0.00;0.00;0.62;2.33;1.70;;;23.70;27.90;;;;;;2256749;61;20682;-62
2021/11/02 09:06:07;0.00;0.00;0.62;0.00;0.00;0.62;3.30;1.80;;;23.80;27.90;;;;;;2255975;61;20657;-64
2021/11/02 09:08:54;0.00;0.00;0.62;0.00;0.00;0.62;2.23;1.53;;;23.80;27.90;;;;;;2257185;61;20386;-63
2021/11/02 09:11:40;0.00;0.00;0.62;0.00;0.00;0.62;2.70;1.53;;;23.80;27.90;;;;;;2257159;61;20379;-64
2021/11/02 09:14:34;0.00;0.00;0.62;0.00;0.00;0.62;2.77;1.67;;;23.80;27.90;;;;;;2256521;61;20410;-62
2021/11/02 09:17:20;0.00;0.00;0.62;0.00;0.00;0.62;2.40;1.50;;;23.80;28.00;;;;;;2257482;61;20358;-64
2021/11/02 09:20:05;0.00;0.00;0.62;0.00;0.00;0.62;2.33;1.30;;;23.80;27.90;;;;;;2256792;61;20397;-65
2021/11/02 09:22:51;0.00;0.00;0.62;0.00;0.00;0.62;2.10;1.40;;;23.90;28.00;;;;;;2257601;61;20427;-63
2021/11/02 09:25:36;0.00;0.00;0.62;0.00;0.00;0.62;6.03;1.63;;;23.90;28.00;;;;;;2257139;61;20795;-66
2021/11/02 09:28:25;0.00;0.00;0.62;0.00;0.00;0.62;4.10;1.87;;;23.90;28.60;;;;;;2256546;61;20656;-65
2021/11/02 09:31:12;0.00;0.00;0.62;0.00;0.00;0.62;2.57;1.57;;;23.90;28.00;;;;;;2257106;61;20417;-62
2021/11/02 09:33:57;0.00;0.00;0.62;0.00;0.00;0.62;2.93;1.70;;;23.90;28.60;;;;;;2256645;61;20545;-64
2021/11/02 09:36:45;0.00;0.00;0.62;0.00;0.00;0.62;6.27;2.40;;;24.00;28.10;;;;;;2256818;61;20390;-64
2021/11/02 09:39:38;0.00;0.00;0.62;0.00;0.00;0.62;2.80;2.03;;;24.00;28.10;;;;;;2256159;61;20358;-62
2021/11/02 09:43:19;0.00;0.00;0.62;0.00;0.00;0.62;2.77;1.77;;;24.00;28.10;;;;;;2257136;61;20386;-63
2021/11/02 09:46:39;0.00;0.00;0.62;0.00;0.00;0.62;2.83;1.70;;;24.00;28.10;;;;;;2256423;61;20728;-64
2021/11/02 09:50:02;0.00;0.00;0.62;0.00;0.00;0.62;2.93;1.80;;;24.00;28.10;;;;;;2256953;61;20579;-63
2021/11/02 09:53:37;0.00;0.00;0.62;0.00;0.00;0.62;1.60;1.30;;;24.10;28.10;;;;;;2256908;61;20466;-65
2021/11/02 09:56:46;0.00;0.00;0.62;0.00;0.00;0.62;2.60;1.87;;;24.00;28.10;;;;;;2255485;61;20378;-64
2021/11/02 09:59:57;0.00;0.00;0.62;0.00;0.00;0.62;2.60;1.67;;;24.00;28.10;;;;;;2256811;61;20725;-64
2021/11/02 10:03:35;0.00;0.00;0.62;0.00;0.00;0.62;2.23;1.67;;;24.10;28.20;;;;;;2256718;61;20363;-62
2021/11/02 10:06:59;0.00;0.00;0.62;0.00;0.00;0.62;2.73;1.70;;;24.10;28.20;;;;;;2256728;61;20387;-64
2021/11/02 10:09:59;0.00;0.00;0.62;0.00;0.00;0.62;4.03;1.83;;;24.20;28.20;;;;;;2256806;61;20749;-62
2021/11/02 10:12:59;0.00;0.00;0.62;0.00;0.00;0.62;2.50;1.50;;;24.20;28.20;;;;;;2255976;61;20604;-65
2021/11/02 10:16:01;0.00;0.00;0.62;0.00;0.00;0.62;3.17;1.97;;;24.20;28.20;;;;;;2256676;61;20351;-63
2021/11/02 10:19:21;0.00;0.00;0.62;0.00;0.00;0.62;2.20;1.80;;;24.20;28.10;;;;;;2256350;61;20363;-63
2021/11/02 10:22:53;0.00;0.00;0.62;0.00;0.00;0.62;1.87;1.43;;;24.20;28.10;;;;;;2254008;61;20402;-64
2021/11/02 10:26:24;0.00;0.00;0.62;0.00;0.00;0.62;3.03;1.50;;;24.20;28.10;;;;;;2256808;61;20439;-65
2021/11/02 10:30:02;0.00;0.00;0.62;0.00;0.00;0.62;4.80;2.10;;;24.30;28.20;;;;;;2257000;61;20358;-64
2021/11/02 10:32:49;0.00;0.00;0.62;0.00;0.00;0.62;4.60;1.90;;;24.20;28.10;;;;;;2256583;61;20362;-64
2021/11/02 10:36:05;0.00;0.00;0.62;0.00;0.00;0.62;2.27;1.50;;;24.30;28.20;;;;;;2255994;61;20395;-63
2021/11/02 10:39:11;0.00;0.00;0.62;0.00;0.00;0.62;2.20;1.60;;;24.30;28.20;;;;;;2256941;61;20367;-63
2021/11/02 10:42:24;0.00;0.00;0.62;0.00;0.00;0.62;2.63;1.73;;;24.30;28.20;;;;;;2253105;61;20947;-63
2021/11/02 10:45:16;0.00;0.00;0.62;0.00;0.00;0.62;2.33;1.43;;;24.30;28.20;;;;;;2257044;61;20362;-63
2021/11/02 10:48:06;0.00;0.00;0.62;0.00;0.00;0.62;3.80;1.50;;;24.30;28.20;;;;;;2256531;61;20435;-63
2021/11/02 10:51:04;0.00;0.00;0.62;0.00;0.00;0.62;1.73;1.30;;;24.30;28.20;;;;;;2255977;61;20631;-64
2021/11/02 10:53:59;0.00;0.00;0.62;0.00;0.00;0.62;1.70;1.27;;;24.30;28.10;;;;;;2256817;61;20568;-63
2021/11/02 10:57:13;0.00;0.00;0.62;0.00;0.00;0.62;2.37;1.40;;;24.30;28.10;;;;;;2256145;61;20413;-64
2021/11/02 11:00:03;0.00;0.00;0.62;0.00;0.00;0.62;2.67;1.60;;;24.40;28.20;;;;;;2256524;61;20486;-64
2021/11/02 11:02:54;0.00;0.00;0.62;0.00;0.00;0.62;3.03;1.50;;;24.40;28.10;;;;;;2256892;61;20429;-64
2021/11/02 11:05:44;0.00;0.00;0.62;0.00;0.00;0.62;2.10;1.47;;;24.40;28.10;;;;;;2256139;61;20351;-64
2021/11/02 11:08:34;0.00;0.00;0.62;0.00;0.00;0.62;2.17;1.30;;;24.40;28.10;;;;;;2257009;61;20402;-63
2021/11/02 11:11:27;0.00;0.00;0.62;0.00;0.00;0.62;1.93;1.30;;;24.40;28.10;;;;;;2255967;61;20382;-63
2021/11/02 11:14:15;0.00;0.00;0.62;0.00;0.00;0.62;1.40;1.03;;;24.40;28.10;;;;;;2256525;61;20395;-64
2021/11/02 11:17:03;0.00;0.00;0.62;0.00;0.00;0.62;2.53;1.57;;;24.50;28.10;;;;;;2256975;61;20386;-64
2021/11/02 11:19:59;0.00;0.00;0.62;0.00;0.00;0.62;2.20;1.37;;;24.40;28.00;;;;;;2255610;61;20779;-64
2021/11/02 11:22:47;0.00;0.00;0.62;0.00;0.00;0.62;1.80;1.30;;;24.40;28.00;;;;;;2256682;61;20355;-63
2021/11/02 11:25:43;0.00;0.00;0.62;0.00;0.00;0.62;2.00;1.00;;;24.40;28.00;;;;;;2256674;61;20487;-64
2021/11/02 11:28:35;0.00;0.00;0.62;0.00;0.00;0.62;2.20;1.50;;;24.40;28.00;;;;;;2256810;61;20401;-64
2021/11/02 11:31:21;0.00;0.00;0.62;0.00;0.00;0.62;1.83;1.37;;;24.50;28.10;;;;;;2256554;61;20520;-65
2021/11/02 11:34:08;0.00;0.00;0.62;0.00;0.00;0.62;1.70;1.20;;;24.40;28.00;;;;;;2255915;61;20383;-64
2021/11/02 11:36:56;0.00;0.00;0.62;0.00;0.00;0.62;2.83;1.30;;;24.40;28.00;;;;;;2256691;61;20618;-64
2021/11/02 11:39:44;0.00;0.00;0.62;0.00;0.00;0.62;2.93;1.97;;;24.50;28.10;;;;;;2256687;61;20363;-63
2021/11/02 11:42:32;0.00;0.00;0.62;0.00;0.00;0.62;2.00;1.60;;;24.40;28.00;;;;;;2256488;61;20374;-65
2021/11/02 11:45:19;0.00;0.00;0.62;0.00;0.00;0.62;3.00;1.30;;;24.50;28.10;;;;;;2256722;61;20794;-64
2021/11/02 11:48:10;0.00;0.00;0.62;0.00;0.00;0.62;1.90;1.33;;;24.50;28.10;;;;;;2256475;61;20367;-64
2021/11/02 11:51:01;0.00;0.00;0.62;0.00;0.00;0.62;2.37;1.67;;;24.50;28.10;;;;;;2256387;61;20410;-63
2021/11/02 11:53:48;0.00;0.00;0.62;0.00;0.00;0.62;1.97;1.43;;;24.50;28.10;;;;;;2256591;61;20446;-65
2021/11/02 11:56:37;0.00;0.00;0.62;0.00;0.00;0.62;1.70;1.03;;;24.50;28.10;;;;;;2256205;61;20359;-65
2021/11/02 11:59:27;0.00;0.00;0.62;0.00;0.00;0.62;1.77;1.40;;;24.50;28.10;;;;;;2256500;61;20358;-64
2021/11/02 12:02:25;0.00;0.00;0.62;0.00;0.00;0.62;2.03;1.03;;;24.50;28.10;;;;;;2256459;61;20386;-64
2021/11/02 12:05:17;0.00;0.00;0.62;0.00;0.00;0.62;1.93;1.37;;;24.50;28.10;;;;;;2256644;61;20390;-64
2021/11/02 12:08:15;0.00;0.00;0.62;0.00;0.00;0.62;2.23;1.33;;;24.50;28.00;;;;;;2256528;61;20355;-62
2021/11/02 12:11:02;0.00;0.00;0.62;0.00;0.00;0.62;1.90;1.30;;;24.50;28.10;;;;;;2255981;61;20374;-63
2021/11/02 12:13:52;0.00;0.00;0.62;0.00;0.00;0.62;1.53;1.07;;;24.50;28.00;;;;;;2256265;61;20801;-62
2021/11/02 12:16:40;0.00;0.00;0.62;0.00;0.00;0.62;1.70;1.10;;;24.50;28.00;;;;;;2256448;61;20427;-65
2021/11/02 12:19:39;0.00;0.00;0.62;0.00;0.00;0.62;1.60;1.10;;;24.50;28.10;;;;;;2256099;61;20393;-64
2021/11/02 12:22:34;0.00;0.00;0.62;0.00;0.00;0.62;1.70;1.20;;;24.50;28.10;;;;;;2256553;61;20715;-65
2021/11/02 12:25:26;0.00;0.00;0.62;0.00;0.00;0.62;2.20;1.40;;;24.50;28.00;;;;;;2256022;61;20386;-64
2021/11/02 12:28:28;0.00;0.00;0.62;0.00;0.00;0.62;1.70;1.03;;;24.50;28.10;;;;;;2256776;61;20359;-64
2021/11/02 12:31:17;0.00;0.00;0.62;0.00;0.00;0.62;2.43;1.50;;;24.50;28.10;;;;;;2256709;61;20422;-64
2021/11/02 12:34:16;0.00;0.00;0.62;0.00;0.00;0.62;1.97;1.30;;;24.50;28.10;;;;;;2255916;61;20646;-65
2021/11/02 12:37:06;0.00;0.00;0.62;0.00;0.00;0.62;1.50;1.20;;;24.50;28.10;;;;;;2256584;61;20367;-65
2021/11/02 12:39:52;0.00;0.00;0.62;0.00;0.00;0.62;1.60;1.20;;;24.50;28.00;;;;;;2256286;61;20405;-63
2021/11/02 12:42:38;0.00;0.00;0.62;0.00;0.00;0.62;1.60;1.00;;;24.50;28.00;;;;;;2256620;61;20719;-64
2021/11/02 12:45:25;0.00;0.00;0.62;0.00;0.00;0.62;1.70;1.23;;;24.50;28.00;;;;;;2256523;61;20363;-62
2021/11/02 12:48:11;0.00;0.00;0.62;0.00;0.00;0.62;1.93;1.10;;;24.50;28.10;;;;;;2255842;61;20430;-65
2021/11/02 12:50:59;0.00;0.00;0.62;0.00;0.00;0.62;2.13;1.40;;;24.50;28.10;;;;;;2256420;61;20386;-66
2021/11/02 12:53:50;0.00;0.00;0.62;0.00;0.00;0.62;1.90;1.30;;;24.50;28.00;;;;;;2256400;61;20451;-65
2021/11/02 12:56:37;0.00;0.00;0.62;0.00;0.00;0.62;1.50;1.00;;;24.50;28.10;;;;;;2256222;61;20402;-64
2021/11/02 12:59:28;0.00;0.00;0.62;0.00;0.00;0.62;1.60;1.10;;;24.50;28.00;;;;;;2256402;61;20359;-64
2021/11/02 13:02:19;0.00;0.00;0.62;0.00;0.00;0.62;1.40;0.93;;;24.50;28.00;;;;;;2255740;61;20430;-65
2021/11/02 13:05:13;0.00;0.00;0.62;0.00;0.00;0.62;1.80;1.20;;;24.50;28.00;;;;;;2256668;61;20351;-64
2021/11/02 13:08:08;0.00;0.00;0.62;0.00;0.00;0.62;1.77;1.23;;;24.60;28.10;;;;;;2256790;61;20358;-65
2021/11/02 13:11:02;0.00;0.00;0.62;0.00;0.00;0.62;1.73;1.20;;;24.50;28.60;;;;;;2255702;61;20382;-65
2021/11/02 13:14:00;0.00;0.00;0.62;0.00;0.00;0.62;1.40;0.90;;;24.60;28.10;;;;;;2256310;61;20431;-64
2021/11/02 13:16:56;0.00;0.00;0.62;0.00;0.00;0.62;1.90;1.33;;;24.60;28.10;;;;;;2256007;61;20406;-64
2021/11/02 13:19:43;0.00;0.00;0.62;0.00;0.00;0.62;1.90;1.10;;;24.60;28.10;;;;;;2256574;61;20735;-64
2021/11/02 13:22:28;0.00;0.00;0.62;0.00;0.00;0.62;1.30;0.90;;;24.50;28.00;;;;;;2256626;61;20378;-65
2021/11/02 13:25:22;0.00;0.00;0.62;0.00;0.00;0.62;1.43;0.90;;;24.60;28.10;;;;;;2255617;61;20624;-64
2021/11/02 13:28:08;0.00;0.00;0.62;0.00;0.00;0.62;2.10;1.20;;;24.50;28.00;;;;;;2256462;61;20398;-65
2021/11/02 13:30:53;0.00;0.00;0.62;0.00;0.00;0.62;1.50;1.00;;;24.60;28.10;;;;;;2256352;61;20426;-64
2021/11/02 13:33:38;0.00;0.00;0.62;0.00;0.00;0.62;1.40;1.00;;;24.60;28.60;;;;;;2256079;61;20358;-64
2021/11/02 13:36:22;0.00;0.00;0.62;0.00;0.00;0.62;1.37;0.90;;;24.60;28.10;;;;;;2256493;61;20976;-65
2021/11/02 13:39:08;0.00;0.00;0.62;0.00;0.00;0.62;1.53;1.00;;;24.60;28.10;;;;;;2256160;61;20560;-64
2021/11/02 13:41:55;0.00;0.00;0.62;0.00;0.00;0.62;1.70;1.30;;;24.60;28.10;;;;;;2256574;61;20430;-65
2021/11/02 13:44:45;0.00;0.00;0.62;0.00;0.00;0.62;1.73;1.13;;;24.60;28.10;;;;;;2256694;61;20382;-65
2021/11/02 13:47:31;0.00;0.00;0.62;0.00;0.00;0.62;1.40;1.10;;;24.60;28.10;;;;;;2255910;61;20393;-61
2021/11/02 13:50:19;0.00;0.00;0.62;0.00;0.00;0.62;1.40;0.90;;;24.60;28.10;;;;;;2256270;61;20355;-63
2021/11/02 13:53:04;0.00;0.00;0.62;0.00;0.00;0.62;1.60;1.00;;;24.60;28.10;;;;;;2256113;61;20657;-63
2021/11/02 13:55:50;0.00;0.00;0.62;0.00;0.00;0.62;2.30;1.20;;;24.60;28.10;;;;;;2256941;61;20467;-64
2021/11/02 13:58:38;0.00;0.00;0.62;0.00;0.00;0.62;2.00;1.00;;;24.60;28.10;;;;;;2257030;61;20402;-64
2021/11/02 14:01:27;0.00;0.00;0.62;0.00;0.00;0.62;1.80;1.10;;;24.60;28.20;;;;;;2256640;61;20402;-65
2021/11/02 14:04:16;0.00;0.00;0.62;0.00;0.00;0.62;1.60;1.10;;;24.60;28.20;;;;;;2257282;61;20394;-65
2021/11/02 14:07:06;0.00;0.00;0.62;0.00;0.00;0.62;2.20;1.30;;;24.70;28.30;;;;;;2257229;61;20410;-62
2021/11/02 14:09:55;0.00;0.00;0.62;0.00;0.00;0.62;1.40;0.90;;;24.70;28.30;;;;;;2256472;61;20366;-63
2021/11/02 14:12:44;0.00;0.00;0.62;0.00;0.00;0.62;1.30;0.90;;;24.80;28.30;;;;;;2256809;61;20354;-65
2021/11/02 14:15:31;0.00;0.00;0.62;0.00;0.00;0.62;1.90;1.00;;;24.80;28.20;;;;;;2256929;61;20371;-64
2021/11/02 14:18:19;0.00;0.00;0.62;0.00;0.00;0.62;1.60;0.90;;;24.80;28.20;;;;;;2256844;61;20394;-64
2021/11/02 14:21:04;0.00;0.00;0.62;0.00;0.00;0.62;1.80;1.30;;;24.90;28.20;;;;;;2256978;61;20382;-64
2021/11/02 14:23:52;0.00;0.00;0.62;0.00;0.00;0.62;1.50;1.13;;;24.90;28.20;;;;;;2256366;61;20360;-65
2021/11/02 14:26:47;0.00;0.00;0.62;0.00;0.00;0.62;1.90;1.20;;;24.90;28.20;;;;;;2257265;61;20613;-65
2021/11/02 14:29:55;0.00;0.00;0.62;0.00;0.00;0.62;1.40;0.90;;;24.90;28.20;;;;;;2257057;61;20436;-65
2021/11/02 14:32:50;0.00;0.00;0.62;0.00;0.00;0.62;1.37;0.83;;;25.00;28.20;;;;;;2256045;61;20475;-64
2021/11/02 14:35:46;0.00;0.00;0.62;0.00;0.00;0.62;1.30;0.80;;;25.00;28.10;;;;;;2256959;61;20383;-65
2021/11/02 14:38:44;0.00;0.00;0.62;0.00;0.00;0.62;1.30;0.90;;;25.00;28.10;;;;;;2256264;61;20379;-65
2021/11/02 14:41:34;0.00;0.00;0.62;0.00;0.00;0.62;1.63;1.00;;;25.00;28.00;;;;;;2256941;61;20375;-67
2021/11/02 14:44:25;0.00;0.00;0.62;0.00;0.00;0.62;1.60;1.00;;;25.00;28.00;;;;;;2256996;61;20351;-66
2021/11/02 14:47:33;0.00;0.00;0.62;0.00;0.00;0.62;10.93;1.30;;;25.00;28.00;;;;;;2256323;61;20462;-65
2021/11/02 14:50:36;0.00;0.00;0.62;0.00;0.00;0.62;1.83;1.00;;;25.00;28.10;;;;;;2256774;61;20362;-68
2021/11/02 14:53:30;0.00;0.00;0.62;0.00;0.00;0.62;2.00;0.93;;;25.10;28.20;;;;;;2256197;61;20726;-66
2021/11/02 14:56:32;0.00;0.00;0.62;0.00;0.00;0.62;1.60;0.83;;;25.10;28.20;;;;;;2257117;61;20379;-67
2021/11/02 14:59:20;0.00;0.00;0.62;0.00;0.00;0.62;1.70;1.00;;;25.10;28.30;;;;;;2256954;61;20390;-68
2021/11/02 15:02:08;0.00;0.00;0.62;0.00;0.00;0.62;2.27;0.90;;;25.10;28.20;;;;;;2256641;61;20750;-67
2021/11/02 15:04:53;0.00;0.00;0.62;0.00;0.00;0.62;2.00;1.17;;;25.10;28.20;;;;;;2256898;61;20347;-65
2021/11/02 15:07:43;0.00;0.00;0.62;0.00;0.00;0.62;1.40;0.80;;;25.10;28.20;;;;;;2256774;61;20395;-64
2021/11/02 15:10:27;0.00;0.00;0.62;0.00;0.00;0.62;1.30;0.83;;;25.20;28.30;;;;;;2256818;61;20395;-66
2021/11/02 15:13:12;0.00;0.00;0.62;0.00;0.00;0.62;2.50;0.93;;;25.20;28.30;;;;;;2256807;61;20366;-65
2021/11/02 15:15:56;0.00;0.00;0.62;0.00;0.00;0.62;1.60;0.93;;;25.20;28.30;;;;;;2256103;61;20651;-65
2021/11/02 15:18:45;0.00;0.00;0.62;0.00;0.00;0.62;2.07;1.17;;;25.20;28.30;;;;;;2256807;61;20362;-66
2021/11/02 15:21:36;0.00;0.00;0.62;0.00;0.00;0.62;1.40;0.97;;;25.20;28.30;;;;;;2256995;61;20374;-65
2021/11/02 15:24:24;0.00;0.00;0.62;0.00;0.00;0.62;1.40;0.90;;;25.20;28.30;;;;;;2257061;61;20412;-64
2021/11/02 15:27:12;0.00;0.00;0.62;0.00;0.00;0.62;2.07;1.00;;;25.20;28.30;;;;;;2409080;45;20477;-65
2021/11/02 15:29:59;0.00;0.00;0.62;0.00;0.00;0.62;2.03;1.13;;;25.20;28.30;;;;;;2258341;61;20401;-65
2021/11/02 15:32:46;0.00;0.00;0.62;0.00;0.00;0.62;1.40;0.80;;;25.20;28.30;;;;;;2256909;61;20366;-65
2021/11/02 15:35:31;0.00;0.00;0.62;0.00;0.00;0.62;1.60;0.90;;;25.20;28.80;;;;;;2256844;61;20948;-62
2021/11/02 15:38:27;0.00;0.00;0.62;0.00;0.00;0.62;1.63;1.10;;;25.20;28.30;;;;;;2256123;61;20359;-65
2021/11/02 15:41:23;0.00;0.00;0.62;0.00;0.00;0.62;1.50;0.90;;;25.20;28.30;;;;;;2256278;61;20415;-64
2021/11/02 15:44:11;0.00;0.00;0.62;0.00;0.00;0.62;2.13;1.30;;;25.30;28.30;;;;;;2256646;61;20363;-66
2021/11/02 15:46:57;0.00;0.00;0.62;0.00;0.00;0.62;2.90;1.30;;;25.30;28.30;;;;;;2256325;61;20367;-68
2021/11/02 15:49:51;0.00;0.00;0.62;0.00;0.00;0.62;2.10;0.97;;;25.30;28.30;;;;;;2256605;61;20359;-65
2021/11/02 15:52:38;0.00;0.00;0.62;0.00;0.00;0.62;1.83;1.10;;;25.30;28.30;;;;;;2255434;61;20418;-66
2021/11/02 15:55:26;0.00;0.00;0.62;0.00;0.00;0.62;1.63;1.23;;;25.30;28.30;;;;;;2256944;61;20393;-63
2021/11/02 15:58:15;0.00;0.00;0.62;0.00;0.00;0.62;1.70;0.90;;;25.30;28.30;;;;;;2256603;61;20359;-65
2021/11/02 16:00:59;0.00;0.00;0.62;0.00;0.00;0.62;1.70;0.83;;;25.30;28.30;;;;;;2255866;61;20379;-63
2021/11/02 16:03:44;0.00;0.00;0.62;0.00;0.00;0.62;1.87;1.23;;;25.30;28.30;;;;;;2256612;61;20398;-66
2021/11/02 16:06:28;0.00;0.00;0.62;0.00;0.00;0.62;1.60;1.10;;;25.30;28.30;;;;;;2256818;61;20371;-65